createdAt,value
2019-04-28T00:00:53.905Z,9.11
2019-04-28T00:03:22.771Z,9.12
2019-04-28T00:05:51.402Z,9.14
2019-04-28T00:08:20.796Z,9.10
2019-04-28T00:10:53.120Z,9.01
2019-04-28T00:13:20.918Z,8.97
2019-04-28T00:15:49.219Z,9.04
2019-04-28T00:18:17.668Z,8.98
2019-04-28T00:21:05.566Z,8.85
2019-04-28T00:23:51.724Z,8.77
2019-04-28T00:26:42.615Z,8.47
2019-04-28T00:29:11.211Z,8.77
2019-04-28T00:31:41.373Z,8.71
2019-04-28T00:34:11.467Z,8.69
2019-04-28T00:36:43.144Z,8.65
2019-04-28T00:39:11.947Z,8.43
2019-04-28T00:41:42.090Z,8.50
2019-04-28T00:44:12.028Z,8.70
2019-04-28T00:46:42.214Z,8.69
2019-04-28T00:49:11.893Z,8.72
2019-04-28T00:51:41.509Z,8.81
2019-04-28T00:54:12.135Z,8.75
2019-04-28T00:56:41.804Z,8.73
2019-04-28T00:59:11.797Z,8.63
2019-04-28T01:01:51.309Z,8.66
2019-04-28T01:04:21.961Z,8.75
2019-04-28T01:06:51.983Z,8.58
2019-04-28T01:09:21.976Z,8.63
2019-04-28T01:11:51.099Z,8.65
2019-04-28T01:14:21.328Z,8.50
2019-04-28T01:16:57.362Z,8.54
2019-04-28T01:19:30.144Z,8.56
2019-04-28T01:22:12.686Z,8.67
2019-04-28T01:24:41.699Z,8.53
2019-04-28T01:27:45.348Z,8.55
2019-04-28T01:30:21.144Z,8.62
2019-04-28T01:32:56.500Z,8.37
2019-04-28T01:35:25.059Z,8.46
2019-04-28T01:37:53.851Z,8.49
2019-04-28T01:40:22.436Z,8.44
2019-04-28T01:42:51.128Z,8.27
2019-04-28T01:45:20.587Z,8.34
2019-04-28T01:47:50.431Z,8.31
2019-04-28T01:50:20.516Z,8.31
2019-04-28T01:52:49.644Z,8.24
2019-04-28T01:55:20.279Z,8.26
2019-04-28T01:57:49.787Z,8.25
2019-04-28T02:00:25.304Z,8.25
2019-04-28T02:02:50.612Z,8.28
2019-04-28T02:05:19.719Z,8.23
2019-04-28T02:07:50.374Z,8.28
2019-04-28T02:10:20.202Z,8.34
2019-04-28T02:12:50.324Z,8.35
2019-04-28T02:15:20.205Z,8.22
2019-04-28T02:17:49.992Z,8.33
2019-04-28T02:20:20.432Z,8.23
2019-04-28T02:22:54.982Z,8.06
2019-04-28T02:25:23.515Z,8.09
2019-04-28T02:27:51.652Z,8.07
2019-04-28T02:30:22.630Z,8.12
2019-04-28T02:32:51.905Z,8.05
2019-04-28T02:35:21.490Z,8.12
2019-04-28T02:37:50.673Z,8.10
2019-04-28T02:40:20.719Z,8.11
2019-04-28T02:42:51.904Z,8.12
2019-04-28T02:45:21.805Z,8.07
2019-04-28T02:47:52.599Z,7.96
2019-04-28T02:50:41.126Z,8.13
2019-04-28T02:53:15.791Z,8.12
2019-04-28T02:55:44.287Z,7.96
2019-04-28T02:58:13.454Z,7.80
2019-04-28T03:01:00.387Z,7.83
2019-04-28T03:03:12.550Z,7.70
2019-04-28T03:05:41.369Z,7.64
2019-04-28T03:08:11.129Z,7.58
2019-04-28T03:10:40.972Z,7.25
2019-04-28T03:13:13.081Z,7.32
2019-04-28T03:15:41.669Z,7.62
2019-04-28T03:18:11.487Z,7.56
2019-04-28T03:20:41.900Z,7.72
2019-04-28T03:23:12.428Z,7.76
2019-04-28T03:26:03.135Z,7.89
2019-04-28T03:29:04.324Z,7.94
2019-04-28T03:32:16.469Z,8.01
2019-04-28T03:34:43.573Z,8.03
2019-04-28T03:37:11.497Z,8.03
2019-04-28T03:39:40.653Z,8.11
2019-04-28T03:42:11.449Z,7.80
2019-04-28T03:44:41.442Z,7.90
2019-04-28T03:47:10.742Z,7.87
2019-04-28T03:49:40.581Z,7.96
2019-04-28T03:52:10.725Z,7.97
2019-04-28T03:54:40.951Z,7.74
2019-04-28T03:57:11.442Z,7.94
2019-04-28T03:59:41.316Z,7.91
2019-04-28T04:02:11.310Z,7.85
2019-04-28T04:04:41.444Z,7.69
2019-04-28T04:07:11.052Z,7.73
2019-04-28T04:09:51.516Z,7.84
2019-04-28T04:12:30.734Z,7.77
2019-04-28T04:15:04.475Z,7.79
2019-04-28T04:17:36.821Z,7.68
2019-04-28T04:20:06.388Z,7.84
2019-04-28T04:22:35.279Z,7.84
2019-04-28T04:25:04.292Z,7.81
2019-04-28T04:27:32.938Z,7.89
2019-04-28T04:30:01.924Z,8.00
2019-04-28T04:32:33.866Z,7.97
2019-04-28T04:35:00.993Z,8.02
2019-04-28T04:37:30.822Z,8.01
2019-04-28T04:40:01.198Z,8.00
2019-04-28T04:42:30.636Z,7.99
2019-04-28T04:45:00.560Z,7.99
2019-04-28T04:47:32.477Z,8.04
2019-04-28T04:50:00.335Z,8.07
2019-04-28T04:52:30.443Z,8.18
2019-04-28T04:55:01.260Z,8.03
2019-04-28T04:57:32.365Z,8.20
2019-04-28T05:00:01.727Z,8.28
2019-04-28T05:02:55.955Z,8.13
2019-04-28T05:05:33.944Z,8.17
2019-04-28T05:08:02.156Z,8.24
2019-04-28T05:10:30.817Z,8.18
2019-04-28T05:13:00.207Z,8.10
2019-04-28T05:15:30.324Z,8.11
2019-04-28T05:18:00.199Z,8.15
2019-04-28T05:20:30.272Z,7.89
2019-04-28T05:23:09.620Z,7.76
2019-04-28T05:25:40.762Z,7.81
2019-04-28T05:28:10.431Z,7.86
2019-04-28T05:30:42.723Z,8.27
2019-04-28T05:33:11.861Z,8.33
2019-04-28T05:35:40.430Z,8.11
2019-04-28T05:38:09.946Z,8.29
2019-04-28T05:40:39.845Z,8.38
2019-04-28T05:43:10.597Z,8.47
2019-04-28T05:45:39.691Z,8.52
2019-04-28T05:48:11.141Z,8.52
2019-04-28T05:51:01.821Z,8.62
2019-04-28T05:53:40.362Z,8.58
2019-04-28T05:56:21.755Z,8.62
2019-04-28T05:58:53.555Z,8.70
2019-04-28T06:01:42.253Z,8.78
2019-04-28T06:04:11.244Z,8.70
2019-04-28T06:06:42.358Z,8.68
2019-04-28T06:09:26.464Z,8.82
2019-04-28T06:11:54.718Z,8.97
2019-04-28T06:14:24.749Z,8.85
2019-04-28T06:16:53.029Z,8.78
2019-04-28T06:19:21.163Z,8.86
2019-04-28T06:21:49.701Z,8.95
2019-04-28T06:24:18.023Z,8.97
2019-04-28T06:26:46.714Z,8.89
2019-04-28T06:29:14.839Z,8.98
2019-04-28T06:31:43.327Z,9.10
2019-04-28T06:34:11.616Z,8.92
2019-04-28T06:36:40.270Z,9.05
2019-04-28T06:39:09.013Z,9.12
2019-04-28T06:41:37.378Z,9.05
2019-04-28T06:44:05.592Z,9.08
2019-04-28T06:46:33.873Z,9.09
2019-04-28T06:49:02.420Z,9.09
2019-04-28T06:51:30.661Z,9.21
2019-04-28T06:53:58.802Z,8.94
2019-04-28T06:56:26.997Z,9.23
2019-04-28T06:58:59.311Z,9.38
2019-04-28T07:01:25.437Z,9.29
2019-04-28T07:03:54.039Z,9.32
2019-04-28T07:06:22.313Z,9.35
2019-04-28T07:08:50.548Z,9.38
2019-04-28T07:11:19.782Z,9.38
2019-04-28T07:13:48.023Z,9.38
2019-04-28T07:16:16.260Z,9.46
2019-04-28T07:18:48.920Z,9.54
2019-04-28T07:21:42.651Z,9.49
2019-04-28T07:24:11.334Z,9.38
2019-04-28T07:26:39.721Z,9.52
2019-04-28T07:29:08.306Z,9.53
2019-04-28T07:31:36.577Z,9.47
2019-04-28T07:34:05.100Z,9.46
2019-04-28T07:36:33.307Z,9.06
2019-04-28T07:39:01.837Z,9.38
2019-04-28T07:41:30.032Z,9.45
2019-04-28T07:43:58.333Z,9.37
2019-04-28T07:46:26.482Z,9.30
2019-04-28T07:48:55.014Z,9.43
2019-04-28T07:51:25.853Z,9.42
2019-04-28T07:54:02.214Z,9.30
2019-04-28T07:56:28.881Z,9.27
2019-04-28T07:58:57.076Z,9.11
2019-04-28T08:01:25.752Z,9.19
2019-04-28T08:03:54.136Z,9.18
2019-04-28T08:06:22.288Z,9.20
2019-04-28T08:08:50.461Z,9.12
2019-04-28T08:11:18.593Z,9.10
2019-04-28T08:13:46.864Z,8.98
2019-04-28T08:16:15.046Z,9.18
2019-04-28T08:18:43.748Z,9.21
2019-04-28T08:21:11.889Z,9.28
2019-04-28T08:23:46.972Z,9.33
2019-04-28T08:26:10.889Z,9.38
2019-04-28T08:28:39.664Z,9.35
2019-04-28T08:31:09.811Z,9.45
2019-04-28T08:33:44.220Z,9.51
2019-04-28T08:36:12.710Z,9.67
2019-04-28T08:38:41.640Z,9.73
2019-04-28T08:41:10.104Z,9.74
2019-04-28T08:43:38.600Z,9.92
2019-04-28T08:46:06.785Z,9.25
2019-04-28T08:48:34.962Z,9.50
2019-04-28T08:51:03.387Z,9.87
2019-04-28T08:53:31.908Z,9.84
2019-04-28T08:56:00.067Z,9.78
2019-04-28T08:58:28.238Z,10.08
2019-04-28T09:00:57.243Z,10.16
2019-04-28T09:03:25.538Z,9.81
2019-04-28T09:05:54.283Z,9.70
2019-04-28T09:08:22.520Z,10.33
2019-04-28T09:10:50.805Z,10.54
2019-04-28T09:13:19.040Z,10.44
2019-04-28T09:15:47.264Z,10.61
2019-04-28T09:18:15.449Z,10.68
2019-04-28T09:20:43.712Z,10.77
2019-04-28T09:23:11.977Z,10.55
2019-04-28T09:25:40.197Z,10.97
2019-04-28T09:28:08.571Z,11.02
2019-04-28T09:30:36.999Z,11.29
2019-04-28T09:33:05.161Z,11.23
2019-04-28T09:35:33.900Z,11.65
2019-04-28T09:38:02.075Z,11.85
2019-04-28T09:40:30.528Z,11.64
2019-04-28T09:43:30.371Z,12.17
2019-04-28T09:46:23.995Z,12.25
2019-04-28T09:48:52.381Z,12.42
2019-04-28T09:51:20.840Z,11.85
2019-04-28T09:53:49.290Z,12.51
2019-04-28T09:56:17.756Z,12.67
2019-04-28T09:58:46.431Z,12.97
2019-04-28T10:01:14.749Z,12.33
2019-04-28T10:03:43.556Z,12.80
2019-04-28T10:06:12.254Z,13.14
2019-04-28T10:08:40.460Z,13.14
2019-04-28T10:11:09.433Z,13.08
2019-04-28T10:13:38.140Z,13.00
2019-04-28T10:16:20.405Z,12.71
2019-04-28T10:18:49.196Z,12.79
2019-04-28T10:21:19.112Z,12.63
2019-04-28T10:23:47.516Z,13.04
2019-04-28T10:26:17.160Z,13.08
2019-04-28T10:28:45.436Z,12.55
2019-04-28T10:31:13.969Z,12.43
2019-04-28T10:33:46.375Z,12.46
2019-04-28T10:36:15.907Z,12.54
2019-04-28T10:38:46.211Z,12.63
2019-04-28T10:41:35.893Z,12.44
2019-04-28T10:44:04.172Z,12.77
2019-04-28T10:46:32.947Z,12.85
2019-04-28T10:49:02.255Z,13.05
2019-04-28T10:51:30.451Z,13.40
2019-04-28T10:53:58.879Z,13.85
2019-04-28T10:56:27.149Z,13.55
2019-04-28T10:58:57.862Z,14.22
2019-04-28T11:01:26.314Z,13.49
2019-04-28T11:03:57.848Z,12.87
2019-04-28T11:06:26.269Z,13.27
2019-04-28T11:09:05.376Z,13.02
2019-04-28T11:11:33.575Z,13.12
2019-04-28T11:14:03.344Z,13.33
2019-04-28T11:16:35.601Z,12.68
2019-04-28T11:19:04.934Z,13.16
2019-04-28T11:21:33.551Z,13.27
2019-04-28T11:24:02.031Z,13.35
2019-04-28T11:26:30.587Z,13.92
2019-04-28T11:28:59.281Z,14.26
2019-04-28T11:31:27.433Z,14.28
2019-04-28T11:34:13.923Z,14.79
2019-04-28T11:36:42.782Z,14.55
2019-04-28T11:39:14.499Z,14.04
2019-04-28T11:41:43.190Z,14.10
2019-04-28T11:44:11.745Z,14.00
2019-04-28T11:46:40.006Z,14.14
2019-04-28T11:49:08.291Z,13.87
2019-04-28T11:51:36.628Z,13.70
2019-04-28T11:54:04.850Z,14.28
2019-04-28T11:56:41.140Z,13.51
2019-04-28T11:59:04.250Z,14.08
2019-04-28T12:01:33.481Z,15.10
2019-04-28T12:04:04.009Z,15.60
2019-04-28T12:06:32.256Z,14.50
2019-04-28T12:09:16.611Z,14.71
2019-04-28T12:11:47.984Z,14.43
2019-04-28T12:14:36.108Z,14.65
2019-04-28T12:17:22.398Z,14.92
2019-04-28T12:19:54.042Z,14.20
2019-04-28T12:22:22.611Z,14.56
2019-04-28T12:24:50.860Z,15.21
2019-04-28T12:27:19.139Z,15.16
2019-04-28T12:29:47.360Z,15.21
2019-04-28T12:32:15.585Z,15.26
2019-04-28T12:34:43.716Z,15.62
2019-04-28T12:37:12.029Z,15.45
2019-04-28T12:39:40.174Z,14.68
2019-04-28T12:42:08.302Z,14.37
2019-04-28T12:44:36.936Z,14.51
2019-04-28T12:47:05.075Z,14.64
2019-04-28T12:49:43.562Z,14.67
2019-04-28T12:52:13.739Z,14.35
2019-04-28T12:54:44.613Z,14.00
2019-04-28T12:57:12.488Z,13.52
2019-04-28T12:59:49.271Z,13.69
2019-04-28T13:02:52.056Z,13.86
2019-04-28T13:05:20.794Z,14.03
2019-04-28T13:07:48.982Z,14.06
2019-04-28T13:10:17.129Z,14.22
2019-04-28T13:12:45.548Z,14.00
2019-04-28T13:15:14.004Z,14.16
2019-04-28T13:17:42.686Z,14.30
2019-04-28T13:20:11.377Z,14.28
2019-04-28T13:22:40.127Z,14.37
2019-04-28T13:25:08.791Z,15.04
2019-04-28T13:27:36.935Z,15.20
2019-04-28T13:30:05.962Z,14.83
2019-04-28T13:32:34.990Z,14.28
2019-04-28T13:35:04.405Z,14.32
2019-04-28T13:37:32.712Z,14.19
2019-04-28T13:40:05.254Z,14.28
2019-04-28T13:42:33.457Z,14.23
2019-04-28T13:45:11.376Z,14.81
2019-04-28T13:47:40.246Z,14.30
2019-04-28T13:50:33.213Z,14.34
2019-04-28T13:53:01.475Z,14.27
2019-04-28T13:56:04.565Z,15.19
2019-04-28T13:58:51.923Z,15.07
2019-04-28T14:01:45.535Z,14.59
2019-04-28T14:04:36.045Z,14.27
2019-04-28T14:07:05.846Z,14.34
2019-04-28T14:09:34.093Z,14.18
2019-04-28T14:12:02.250Z,14.14
2019-04-28T14:14:30.818Z,14.17
2019-04-28T14:16:59.644Z,13.93
2019-04-28T14:19:28.081Z,14.00
2019-04-28T14:21:56.251Z,13.90
2019-04-28T14:24:24.793Z,13.59
2019-04-28T14:26:53.790Z,13.72
2019-04-28T14:29:22.168Z,13.54
2019-04-28T14:31:50.634Z,13.63
2019-04-28T14:34:19.202Z,13.59
2019-04-28T14:36:47.473Z,13.44
2019-04-28T14:39:16.400Z,13.74
2019-04-28T14:41:44.736Z,13.62
2019-04-28T14:44:13.087Z,13.82
2019-04-28T14:46:41.615Z,13.87
2019-04-28T14:49:09.758Z,13.99
2019-04-28T14:51:38.026Z,13.80
2019-04-28T14:54:06.635Z,13.75
2019-04-28T14:56:34.996Z,13.66
2019-04-28T14:59:04.194Z,13.58
2019-04-28T15:02:07.622Z,13.38
2019-04-28T15:05:10.970Z,13.42
2019-04-28T15:07:58.917Z,13.31
2019-04-28T15:10:33.746Z,13.26
2019-04-28T15:13:02.591Z,13.28
2019-04-28T15:15:30.861Z,13.43
2019-04-28T15:17:59.753Z,13.10
2019-04-28T15:20:27.911Z,13.05
2019-04-28T15:22:56.635Z,12.76
2019-04-28T15:25:25.217Z,12.77
2019-04-28T15:27:53.393Z,12.79
2019-04-28T15:30:22.298Z,12.39
2019-04-28T15:32:50.472Z,12.55
2019-04-28T15:35:18.691Z,12.36
2019-04-28T15:37:46.858Z,12.28
2019-04-28T15:40:15.455Z,12.28
2019-04-28T15:42:44.694Z,12.20
2019-04-28T15:45:13.444Z,11.98
2019-04-28T15:47:41.953Z,12.14
2019-04-28T15:50:10.511Z,12.29
2019-04-28T15:52:38.852Z,12.09
2019-04-28T15:55:09.125Z,12.04
2019-04-28T15:57:37.268Z,12.24
2019-04-28T16:00:08.804Z,12.35
2019-04-28T16:02:37.217Z,12.24
2019-04-28T16:05:05.730Z,12.00
2019-04-28T16:07:34.587Z,11.97
2019-04-28T16:10:03.382Z,12.35
2019-04-28T16:12:31.608Z,12.50
2019-04-28T16:15:00.238Z,12.65
2019-04-28T16:17:28.748Z,12.81
2019-04-28T16:19:56.934Z,12.84
2019-04-28T16:22:25.554Z,12.55
2019-04-28T16:24:53.761Z,12.78
2019-04-28T16:27:22.251Z,12.81
2019-04-28T16:29:50.721Z,12.87
2019-04-28T16:32:19.002Z,12.83
2019-04-28T16:34:47.786Z,12.89
2019-04-28T16:37:15.983Z,12.61
2019-04-28T16:39:44.164Z,12.98
2019-04-28T16:42:23.574Z,12.88
2019-04-28T16:45:03.281Z,12.94
2019-04-28T16:47:31.795Z,12.64
2019-04-28T16:50:00.076Z,12.67
2019-04-28T16:52:28.638Z,12.57
2019-04-28T16:55:16.170Z,12.55
2019-04-28T16:57:59.693Z,12.60
2019-04-28T17:00:56.821Z,12.31
2019-04-28T17:03:27.242Z,12.25
2019-04-28T17:05:55.710Z,12.50
2019-04-28T17:08:23.852Z,12.40
2019-04-28T17:10:52.801Z,12.30
2019-04-28T17:13:20.938Z,12.19
2019-04-28T17:15:49.114Z,12.48
2019-04-28T17:18:17.480Z,12.48
2019-04-28T17:20:46.392Z,12.55
2019-04-28T17:23:14.660Z,12.55
2019-04-28T17:25:42.977Z,12.47
2019-04-28T17:28:11.404Z,12.40
2019-04-28T17:30:39.590Z,12.32
2019-04-28T17:33:08.172Z,12.31
2019-04-28T17:35:37.190Z,12.37
2019-04-28T17:38:06.638Z,12.29
2019-04-28T17:40:36.151Z,12.56
2019-04-28T17:43:06.763Z,12.35
2019-04-28T17:45:35.109Z,12.14
2019-04-28T17:48:12.784Z,12.27
2019-04-28T17:50:41.083Z,12.18
2019-04-28T17:53:09.690Z,12.12
2019-04-28T17:55:38.198Z,12.05
2019-04-28T17:58:06.360Z,12.02
2019-04-28T18:00:47.288Z,11.97
2019-04-28T18:03:29.297Z,11.91
2019-04-28T18:06:17.595Z,11.85
2019-04-28T18:08:37.991Z,11.83
2019-04-28T18:11:06.192Z,11.85
2019-04-28T18:13:35.338Z,11.82
2019-04-28T18:16:32.435Z,11.76
2019-04-28T18:19:04.255Z,11.64
2019-04-28T18:21:32.712Z,11.36
2019-04-28T18:24:00.908Z,11.36
2019-04-28T18:26:29.337Z,11.35
2019-04-28T18:28:58.364Z,11.21
2019-04-28T18:31:43.259Z,11.05
2019-04-28T18:34:20.807Z,10.88
2019-04-28T18:36:58.575Z,10.84
2019-04-28T18:39:45.475Z,10.92
2019-04-28T18:42:26.426Z,10.90
2019-04-28T18:44:54.820Z,10.78
2019-04-28T18:47:23.506Z,10.71
2019-04-28T18:49:52.367Z,10.60
2019-04-28T18:52:20.508Z,10.73
2019-04-28T18:54:49.346Z,10.42
2019-04-28T18:57:17.540Z,10.27
2019-04-28T18:59:46.068Z,10.13
2019-04-28T19:02:42.881Z,10.12
2019-04-28T19:05:12.772Z,10.15
2019-04-28T19:08:15.630Z,10.00
2019-04-28T19:10:52.896Z,9.96
2019-04-28T19:13:24.701Z,9.84
2019-04-28T19:16:05.065Z,9.81
2019-04-28T19:18:36.001Z,9.83
2019-04-28T19:21:04.179Z,9.77
2019-04-28T19:23:32.471Z,9.93
2019-04-28T19:26:00.892Z,9.80
2019-04-28T19:28:29.029Z,9.75
2019-04-28T19:30:57.638Z,9.68
2019-04-28T19:33:25.969Z,9.96
2019-04-28T19:35:54.455Z,10.01
2019-04-28T19:38:23.699Z,10.04
2019-04-28T19:40:52.088Z,10.08
2019-04-28T19:43:21.076Z,9.96
2019-04-28T19:45:51.273Z,9.98
2019-04-28T19:48:19.456Z,9.63
2019-04-28T19:50:48.105Z,9.59
2019-04-28T19:53:16.373Z,9.61
2019-04-28T19:55:51.986Z,9.59
2019-04-28T19:58:34.662Z,9.47
2019-04-28T20:01:18.202Z,9.43
2019-04-28T20:03:46.951Z,9.38
2019-04-28T20:06:15.115Z,9.31
2019-04-28T20:08:43.381Z,9.12
2019-04-28T20:11:12.080Z,9.07
2019-04-28T20:13:40.617Z,9.14
2019-04-28T20:16:08.976Z,9.07
2019-04-28T20:18:37.228Z,8.90
2019-04-28T20:21:05.603Z,8.93
2019-04-28T20:23:33.738Z,9.00
2019-04-28T20:26:02.105Z,9.05
2019-04-28T20:28:30.253Z,9.20
2019-04-28T20:30:58.998Z,9.14
2019-04-28T20:33:27.485Z,8.96
2019-04-28T20:36:00.008Z,8.88
2019-04-28T20:38:32.168Z,8.93
2019-04-28T20:41:26.027Z,8.90
2019-04-28T20:43:55.148Z,8.85
2019-04-28T20:46:23.408Z,8.76
2019-04-28T20:48:51.951Z,8.74
2019-04-28T20:51:20.380Z,8.79
2019-04-28T20:53:48.670Z,8.67
2019-04-28T20:56:16.948Z,8.71
2019-04-28T20:58:45.220Z,8.71
2019-04-28T21:01:13.385Z,8.63
2019-04-28T21:03:42.181Z,8.57
2019-04-28T21:06:10.352Z,8.58
2019-04-28T21:08:38.776Z,8.44
2019-04-28T21:11:06.956Z,8.35
2019-04-28T21:13:35.669Z,8.32
2019-04-28T21:16:03.956Z,8.33
2019-04-28T21:18:32.133Z,8.32
2019-04-28T21:21:00.329Z,8.23
2019-04-28T21:23:28.847Z,8.32
2019-04-28T21:25:56.980Z,8.27
2019-04-28T21:28:25.197Z,8.25
2019-04-28T21:30:53.503Z,8.29
2019-04-28T21:33:21.955Z,8.15
2019-04-28T21:35:50.346Z,8.01
2019-04-28T21:38:18.764Z,8.04
2019-04-28T21:40:47.668Z,8.00
2019-04-28T21:43:35.982Z,7.88
2019-04-28T21:46:16.158Z,7.84
2019-04-28T21:48:58.615Z,7.90
2019-04-28T21:51:27.237Z,7.87
2019-04-28T21:53:56.025Z,7.84
2019-04-28T21:56:24.711Z,7.71
2019-04-28T21:58:52.834Z,7.63
2019-04-28T22:01:22.770Z,7.43
2019-04-28T22:03:50.964Z,7.44
2019-04-28T22:06:19.815Z,7.28
2019-04-28T22:08:47.992Z,7.44
2019-04-28T22:11:16.214Z,7.47
2019-04-28T22:13:44.910Z,7.39
2019-04-28T22:16:13.563Z,7.25
2019-04-28T22:18:41.737Z,7.22
2019-04-28T22:21:09.886Z,7.15
2019-04-28T22:23:51.893Z,7.22
2019-04-28T22:26:38.248Z,7.20
2019-04-28T22:29:06.413Z,7.23
2019-04-28T22:31:34.959Z,7.09
2019-04-28T22:34:03.389Z,7.29
2019-04-28T22:36:32.100Z,7.08
2019-04-28T22:39:00.589Z,7.00
2019-04-28T22:41:29.553Z,7.15
2019-04-28T22:43:57.768Z,7.08
2019-04-28T22:46:26.176Z,6.65
2019-04-28T22:48:56.639Z,6.61
2019-04-28T22:51:24.792Z,6.94
2019-04-28T22:53:53.252Z,6.76
2019-04-28T22:56:35.102Z,6.69
2019-04-28T22:59:09.610Z,6.60
2019-04-28T23:01:41.025Z,6.69
2019-04-28T23:04:25.775Z,6.52
2019-04-28T23:06:54.023Z,6.47
2019-04-28T23:09:22.775Z,6.68
2019-04-28T23:11:51.241Z,6.51
2019-04-28T23:14:19.498Z,6.31
2019-04-28T23:16:48.113Z,6.41
2019-04-28T23:19:18.141Z,6.49
2019-04-28T23:22:04.879Z,6.25
2019-04-28T23:24:33.757Z,6.48
2019-04-28T23:27:02.349Z,6.59
2019-04-28T23:29:30.795Z,6.34
2019-04-28T23:32:00.428Z,6.30
2019-04-28T23:34:28.925Z,6.65
2019-04-28T23:36:57.413Z,6.68
2019-04-28T23:39:25.747Z,6.71
2019-04-28T23:41:59.708Z,6.75
2019-04-28T23:44:27.916Z,6.62
2019-04-28T23:46:57.725Z,6.43
2019-04-28T23:49:28.175Z,6.22
2019-04-28T23:52:09.417Z,6.15
2019-04-28T23:54:39.619Z,6.12
2019-04-28T23:57:07.796Z,6.09
2019-04-28T23:59:36.128Z,6.02
